createdAt,value
2023-05-25T00:01:16.189Z,101797.84
2023-05-25T00:06:18.267Z,101790.88
2023-05-25T00:11:23.326Z,101792.50
2023-05-25T00:16:25.087Z,101794.22
2023-05-25T00:21:27.462Z,101781.09
2023-05-25T00:26:30.533Z,101788.09
2023-05-25T00:31:36.585Z,101790.69
2023-05-25T00:36:38.408Z,101799.38
2023-05-25T00:41:41.764Z,101781.81
2023-05-25T00:46:49.783Z,101787.06
2023-05-25T00:51:52.095Z,101791.44
2023-05-25T00:56:56.679Z,101780.94
2023-05-25T01:01:59.287Z,101787.06
2023-05-25T01:07:01.205Z,101786.25
2023-05-25T01:12:05.910Z,101780.06
2023-05-25T01:17:07.997Z,101789.69
2023-05-25T01:22:12.975Z,101783.53
2023-05-25T01:27:17.108Z,101780.97
2023-05-25T01:32:19.020Z,101782.72
2023-05-25T01:37:24.478Z,101786.22
2023-05-25T01:42:26.219Z,101783.59
2023-05-25T01:47:30.742Z,101775.75
2023-05-25T01:52:35.829Z,101778.38
2023-05-25T01:57:41.467Z,101793.16
2023-05-25T02:02:44.781Z,101789.56
2023-05-25T02:07:47.974Z,101785.13
2023-05-25T02:12:49.740Z,101782.38
2023-05-25T02:17:51.546Z,101779.63
2023-05-25T02:22:54.756Z,101778.69
2023-05-25T02:27:56.503Z,101775.09
2023-05-25T02:32:58.315Z,101774.91
2023-05-25T02:38:01.759Z,101782.69
2023-05-25T02:43:03.628Z,101780.00
2023-05-25T02:48:05.484Z,101788.72
2023-05-25T02:53:11.043Z,101787.06
2023-05-25T02:58:13.258Z,101785.03
2023-05-25T03:03:34.966Z,101788.38
2023-05-25T03:08:38.082Z,101796.13
2023-05-25T03:13:39.815Z,101795.22
2023-05-25T03:18:41.658Z,101800.41
2023-05-25T03:23:45.018Z,101799.47
2023-05-25T03:28:46.791Z,101806.38
2023-05-25T03:33:48.637Z,101819.38
2023-05-25T03:38:52.675Z,101816.78
2023-05-25T03:43:54.871Z,101824.69
2023-05-25T03:48:56.707Z,101834.91
2023-05-25T03:53:59.817Z,101831.75
2023-05-25T03:59:01.627Z,101843.47
2023-05-25T04:04:03.487Z,101841.78
2023-05-25T04:09:06.669Z,101846.84
2023-05-25T04:14:08.598Z,101850.34
2023-05-25T04:19:13.645Z,101854.69
2023-05-25T04:24:16.745Z,101861.88
2023-05-25T04:29:18.663Z,101866.66
2023-05-25T04:34:36.437Z,101863.94
2023-05-25T04:39:50.309Z,101868.31
2023-05-25T04:44:55.866Z,101871.28
2023-05-25T04:49:58.332Z,101879.38
2023-05-25T04:55:02.854Z,101882.09
2023-05-25T05:00:10.861Z,101883.81
2023-05-25T05:05:13.925Z,101884.81
2023-05-25T05:10:17.767Z,101887.75
2023-05-25T05:15:23.844Z,101882.25
2023-05-25T05:20:25.979Z,101879.72
2023-05-25T05:25:29.955Z,101895.47
2023-05-25T05:30:32.597Z,101889.44
2023-05-25T05:35:34.447Z,101902.75
2023-05-25T05:40:44.057Z,101902.91
2023-05-25T05:45:45.942Z,101915.31
2023-05-25T05:50:48.062Z,101911.81
2023-05-25T05:55:56.059Z,101917.84
2023-05-25T06:00:59.971Z,101932.97
2023-05-25T06:06:02.247Z,101945.78
2023-05-25T06:11:05.575Z,101955.41
2023-05-25T06:16:07.735Z,101963.94
2023-05-25T06:21:10.811Z,101971.09
2023-05-25T06:26:15.888Z,101966.72
2023-05-25T06:31:17.865Z,101972.28
2023-05-25T06:36:19.940Z,101973.44
2023-05-25T06:41:23.242Z,101974.59
2023-05-25T06:46:25.041Z,101983.44
2023-05-25T06:51:29.876Z,101981.75
2023-05-25T06:56:32.882Z,101986.81
2023-05-25T07:01:34.603Z,101990.16
2023-05-25T07:06:36.505Z,101990.94
2023-05-25T07:11:39.650Z,101994.63
2023-05-25T07:16:41.569Z,101993.81
2023-05-25T07:21:43.419Z,102000.03
2023-05-25T07:26:46.543Z,102000.84
2023-05-25T07:31:48.903Z,102006.00
2023-05-25T07:36:50.813Z,102001.41
2023-05-25T07:41:53.896Z,102002.56
2023-05-25T07:46:55.662Z,102002.72
2023-05-25T07:51:57.441Z,102008.25
2023-05-25T07:57:01.187Z,101997.03
2023-05-25T08:02:03.030Z,102002.41
2023-05-25T08:07:04.979Z,102001.63
2023-05-25T08:12:30.701Z,102003.38
2023-05-25T08:17:29.814Z,102004.44
2023-05-25T08:22:31.526Z,102003.59
2023-05-25T08:27:35.962Z,102008.00
2023-05-25T08:32:38.045Z,102000.13
2023-05-25T08:37:40.059Z,101995.78
2023-05-25T08:42:43.538Z,102004.56
2023-05-25T08:47:45.630Z,102004.66
2023-05-25T08:52:47.538Z,102011.63
2023-05-25T08:57:53.530Z,102012.47
2023-05-25T09:02:58.448Z,102017.81
2023-05-25T09:08:00.188Z,102018.72
2023-05-25T09:13:19.074Z,102019.59
2023-05-25T09:18:22.036Z,102021.41
2023-05-25T09:23:23.794Z,102017.09
2023-05-25T09:28:27.805Z,102011.81
2023-05-25T09:33:29.680Z,102019.75
2023-05-25T09:38:31.501Z,102017.09
2023-05-25T09:43:44.723Z,102026.75
2023-05-25T09:48:51.416Z,102028.56
2023-05-25T09:53:53.150Z,102030.28
2023-05-25T09:58:56.285Z,102030.22
2023-05-25T10:04:04.405Z,102036.44
2023-05-25T10:09:06.783Z,102043.47
2023-05-25T10:14:09.884Z,102039.94
2023-05-25T10:19:16.108Z,102048.69
2023-05-25T10:24:21.277Z,102041.56
2023-05-25T10:29:24.977Z,102037.72
2023-05-25T10:34:26.863Z,102042.00
2023-05-25T10:39:28.671Z,102043.84
2023-05-25T10:44:31.698Z,102047.34
2023-05-25T10:49:33.679Z,102046.63
2023-05-25T10:54:36.372Z,102047.00
2023-05-25T10:59:45.050Z,102045.91
2023-05-25T11:04:47.989Z,102049.88
2023-05-25T11:09:57.799Z,102035.72
2023-05-25T11:15:15.580Z,102039.25
2023-05-25T11:20:26.066Z,102046.59
2023-05-25T11:25:42.402Z,102036.03
2023-05-25T11:30:45.659Z,102037.00
2023-05-25T11:35:50.022Z,102036.09
2023-05-25T11:40:51.944Z,102043.91
2023-05-25T11:45:56.966Z,102033.28
2023-05-25T11:51:05.292Z,102031.44
2023-05-25T11:56:08.318Z,102018.72
2023-05-25T12:01:15.653Z,102027.22
2023-05-25T12:06:26.932Z,102015.91
2023-05-25T12:11:28.964Z,102013.88
2023-05-25T12:16:32.042Z,102006.03
2023-05-25T12:21:33.816Z,102002.50
2023-05-25T12:26:35.885Z,101995.03
2023-05-25T12:31:40.115Z,101978.03
2023-05-25T12:36:44.507Z,101981.91
2023-05-25T12:41:47.535Z,101968.16
2023-05-25T12:46:51.151Z,101972.00
2023-05-25T12:51:52.973Z,101968.59
2023-05-25T12:56:54.913Z,101956.78
2023-05-25T13:01:58.037Z,101954.34
2023-05-25T13:06:59.761Z,101960.44
2023-05-25T13:12:02.674Z,101960.03
2023-05-25T13:17:05.956Z,101959.16
2023-05-25T13:22:07.728Z,101955.78
2023-05-25T13:27:09.513Z,101945.44
2023-05-25T13:32:12.746Z,101933.19
2023-05-25T13:37:15.297Z,101942.25
2023-05-25T13:42:17.656Z,101931.06
2023-05-25T13:47:20.795Z,101927.03
2023-05-25T13:52:22.611Z,101934.97
2023-05-25T13:57:24.361Z,101920.91
2023-05-25T14:02:27.464Z,101922.28
2023-05-25T14:07:29.241Z,101917.31
2023-05-25T14:12:31.347Z,101911.47
2023-05-25T14:17:34.483Z,101911.47
2023-05-25T14:22:36.235Z,101896.47
2023-05-25T14:27:37.949Z,101892.31
2023-05-25T14:32:40.996Z,101892.72
2023-05-25T14:37:43.850Z,101886.44
2023-05-25T14:42:45.602Z,101884.84
2023-05-25T14:47:49.044Z,101890.97
2023-05-25T14:52:50.902Z,101883.28
2023-05-25T14:57:52.677Z,101892.06
2023-05-25T15:02:55.843Z,101890.06
2023-05-25T15:07:58.863Z,101883.13
2023-05-25T15:13:00.687Z,101884.94
2023-05-25T15:18:03.925Z,101878.00
2023-05-25T15:23:05.834Z,101882.28
2023-05-25T15:28:07.647Z,101876.84
2023-05-25T15:33:12.612Z,101880.38
2023-05-25T15:38:14.528Z,101869.19
2023-05-25T15:43:16.230Z,101868.81
2023-05-25T15:48:19.401Z,101865.50
2023-05-25T15:53:21.220Z,101867.47
2023-05-25T15:58:22.926Z,101862.88
2023-05-25T16:03:35.425Z,101858.91
2023-05-25T16:08:41.601Z,101856.97
2023-05-25T16:13:43.512Z,101862.19
2023-05-25T16:18:46.607Z,101849.63
2023-05-25T16:23:48.293Z,101852.28
2023-05-25T16:28:50.025Z,101847.25
2023-05-25T16:33:53.109Z,101843.03
2023-05-25T16:38:54.876Z,101836.09
2023-05-25T16:43:56.619Z,101839.41
2023-05-25T16:48:59.727Z,101831.63
2023-05-25T16:54:01.466Z,101833.00
2023-05-25T16:59:03.276Z,101835.03
2023-05-25T17:04:06.531Z,101832.50
2023-05-25T17:09:09.083Z,101832.56
2023-05-25T17:14:10.766Z,101833.44
2023-05-25T17:19:15.050Z,101832.53
2023-05-25T17:24:18.116Z,101837.69
2023-05-25T17:29:20.242Z,101834.69
2023-05-25T17:34:23.346Z,101835.06
2023-05-25T17:39:25.144Z,101839.25
2023-05-25T17:44:27.017Z,101844.34
2023-05-25T17:49:30.110Z,101833.97
2023-05-25T17:54:31.890Z,101840.34
2023-05-25T17:59:33.644Z,101850.28
2023-05-25T18:04:36.805Z,101839.00
2023-05-25T18:09:38.584Z,101855.44
2023-05-25T18:14:40.349Z,101850.50
2023-05-25T18:19:43.429Z,101856.94
2023-05-25T18:24:45.294Z,101852.66
2023-05-25T18:29:47.034Z,101853.72
2023-05-25T18:34:50.104Z,101865.81
2023-05-25T18:39:51.912Z,101867.47
2023-05-25T18:44:53.628Z,101871.53
2023-05-25T18:49:56.964Z,101867.28
2023-05-25T18:54:58.849Z,101875.59
2023-05-25T19:00:00.947Z,101869.81
2023-05-25T19:05:04.497Z,101879.69
2023-05-25T19:10:07.151Z,101876.38
2023-05-25T19:15:10.146Z,101883.22
2023-05-25T19:20:13.648Z,101891.53
2023-05-25T19:25:15.512Z,101899.50
2023-05-25T19:30:17.425Z,101902.28
2023-05-25T19:35:20.593Z,101904.41
2023-05-25T19:40:22.285Z,101916.09
2023-05-25T19:45:24.145Z,101922.31
2023-05-25T19:50:30.489Z,101917.06
2023-05-25T19:55:32.283Z,101921.47
2023-05-25T20:00:34.006Z,101922.34
2023-05-25T20:05:37.136Z,101926.81
2023-05-25T20:10:39.631Z,101926.91
2023-05-25T20:15:41.633Z,101924.28
2023-05-25T20:20:45.003Z,101929.72
2023-05-25T20:25:47.213Z,101923.75
2023-05-25T20:30:49.241Z,101937.13
2023-05-25T20:35:52.336Z,101940.72
2023-05-25T20:40:54.026Z,101939.91
2023-05-25T20:45:55.765Z,101949.66
2023-05-25T20:51:19.151Z,101946.19
2023-05-25T20:56:21.467Z,101952.41
2023-05-25T21:01:23.349Z,101955.09
2023-05-25T21:06:26.474Z,101965.69
2023-05-25T21:11:28.723Z,101963.06
2023-05-25T21:16:30.838Z,101959.56
2023-05-25T21:21:34.079Z,101963.97
2023-05-25T21:26:35.855Z,101967.53
2023-05-25T21:31:37.879Z,101964.03
2023-05-25T21:36:41.022Z,101969.34
2023-05-25T21:41:42.826Z,101973.81
2023-05-25T21:46:44.616Z,101973.84
2023-05-25T21:51:47.718Z,101981.78
2023-05-25T21:56:49.598Z,101974.81
2023-05-25T22:01:51.527Z,101981.81
2023-05-25T22:06:56.670Z,101980.06
2023-05-25T22:11:58.470Z,101988.88
2023-05-25T22:17:00.402Z,101989.78
2023-05-25T22:22:03.945Z,101993.31
2023-05-25T22:27:06.046Z,102003.88
2023-05-25T22:32:08.837Z,102002.13
2023-05-25T22:37:12.006Z,101996.81
2023-05-25T22:42:13.857Z,101997.72
2023-05-25T22:47:15.588Z,102012.69
2023-05-25T22:52:18.935Z,102011.81
2023-05-25T22:57:20.676Z,102016.22
2023-05-25T23:02:22.398Z,102021.47
2023-05-25T23:07:25.515Z,102024.09
2023-05-25T23:12:27.190Z,102019.72
2023-05-25T23:17:29.027Z,102015.31
2023-05-25T23:22:32.123Z,102018.75
2023-05-25T23:27:33.826Z,102020.47
2023-05-25T23:32:36.155Z,102019.50
2023-05-25T23:37:39.337Z,102017.84
2023-05-25T23:42:43.354Z,102014.31
2023-05-25T23:47:45.161Z,102015.16
2023-05-25T23:52:48.216Z,102019.53
2023-05-25T23:57:49.938Z,102011.59
